createdAt,value
2022-08-26T00:01:56.111Z,5.88
2022-08-26T00:04:25.438Z,5.90
2022-08-26T00:06:54.308Z,5.78
2022-08-26T00:09:22.008Z,5.97
2022-08-26T00:11:49.435Z,5.90
2022-08-26T00:14:18.602Z,5.72
2022-08-26T00:16:47.974Z,5.97
2022-08-26T00:19:20.250Z,5.45
2022-08-26T00:21:49.662Z,5.93
2022-08-26T00:24:18.292Z,5.90
2022-08-26T00:26:45.828Z,6.18
2022-08-26T00:29:13.716Z,6.03
2022-08-26T00:31:42.465Z,6.13
2022-08-26T00:34:12.811Z,6.93
2022-08-26T00:36:41.216Z,6.32
2022-08-26T00:39:08.860Z,5.88
2022-08-26T00:41:38.286Z,6.10
2022-08-26T00:44:07.038Z,5.90
2022-08-26T00:46:36.105Z,6.22
2022-08-26T00:49:12.491Z,6.07
2022-08-26T00:51:47.852Z,5.97
2022-08-26T00:54:15.293Z,6.03
2022-08-26T00:57:00.358Z,5.90
2022-08-26T00:59:27.923Z,6.47
2022-08-26T01:01:55.319Z,6.32
2022-08-26T01:04:23.819Z,6.53
2022-08-26T01:06:54.144Z,6.10
2022-08-26T01:09:21.892Z,6.75
2022-08-26T01:11:49.916Z,6.15
2022-08-26T01:14:17.419Z,6.95
2022-08-26T01:16:47.637Z,6.18
2022-08-26T01:19:20.764Z,5.83
2022-08-26T01:22:09.735Z,6.60
2022-08-26T01:24:38.623Z,6.28
2022-08-26T01:27:08.096Z,6.72
2022-08-26T01:29:35.755Z,6.43
2022-08-26T01:32:03.320Z,6.43
2022-08-26T01:34:36.798Z,6.05
2022-08-26T01:37:07.719Z,6.43
2022-08-26T01:39:36.125Z,7.13
2022-08-26T01:42:04.081Z,6.38
2022-08-26T01:44:49.452Z,6.00
2022-08-26T01:47:16.991Z,6.10
2022-08-26T01:49:45.243Z,5.97
2022-08-26T01:52:13.513Z,6.65
2022-08-26T01:54:40.793Z,6.57
2022-08-26T01:57:08.168Z,6.37
2022-08-26T01:59:35.481Z,6.32
2022-08-26T02:02:03.057Z,6.25
2022-08-26T02:04:37.643Z,6.35
2022-08-26T02:07:06.711Z,6.28
2022-08-26T02:09:41.258Z,6.13
2022-08-26T02:12:09.271Z,6.30
2022-08-26T02:14:43.844Z,5.93
2022-08-26T02:17:11.878Z,6.60
2022-08-26T02:19:41.056Z,6.50
2022-08-26T02:22:11.803Z,6.07
2022-08-26T02:24:54.036Z,6.88
2022-08-26T02:27:24.260Z,6.57
2022-08-26T02:29:54.136Z,6.03
2022-08-26T02:32:21.420Z,6.15
2022-08-26T02:34:50.699Z,5.90
2022-08-26T02:37:17.954Z,6.95
2022-08-26T02:39:47.615Z,6.78
2022-08-26T02:42:15.381Z,6.75
2022-08-26T02:44:42.721Z,6.45
2022-08-26T02:47:13.714Z,6.53
2022-08-26T02:49:44.354Z,6.63
2022-08-26T02:52:14.689Z,6.38
2022-08-26T02:54:42.190Z,7.38
2022-08-26T02:57:10.390Z,6.15
2022-08-26T02:59:39.402Z,6.53
2022-08-26T03:02:07.256Z,6.90
2022-08-26T03:04:34.702Z,6.35
2022-08-26T03:07:03.151Z,6.32
2022-08-26T03:09:30.451Z,6.78
2022-08-26T03:11:58.355Z,6.60
2022-08-26T03:14:25.846Z,6.68
2022-08-26T03:16:54.596Z,6.72
2022-08-26T03:19:23.415Z,7.07
2022-08-26T03:21:52.355Z,6.30
2022-08-26T03:24:19.723Z,6.50
2022-08-26T03:26:52.702Z,6.68
2022-08-26T03:29:39.662Z,6.03
2022-08-26T03:32:07.612Z,6.43
2022-08-26T03:34:35.256Z,6.47
2022-08-26T03:37:02.764Z,6.33
2022-08-26T03:39:31.494Z,6.22
2022-08-26T03:41:59.344Z,6.25
2022-08-26T03:44:26.864Z,6.80
2022-08-26T03:46:54.695Z,6.18
2022-08-26T03:49:22.426Z,6.27
2022-08-26T03:51:50.100Z,6.63
2022-08-26T03:54:17.745Z,5.93
2022-08-26T03:56:46.537Z,6.18
2022-08-26T03:59:14.029Z,6.90
2022-08-26T04:01:42.008Z,6.00
2022-08-26T04:04:09.377Z,7.03
2022-08-26T04:06:44.570Z,6.43
2022-08-26T04:09:15.353Z,6.15
2022-08-26T04:11:44.345Z,6.38
2022-08-26T04:14:17.710Z,6.27
2022-08-26T04:16:47.833Z,6.43
2022-08-26T04:19:15.156Z,7.70
2022-08-26T04:21:42.523Z,6.70
2022-08-26T04:24:12.002Z,6.55
2022-08-26T04:26:42.716Z,6.45
2022-08-26T04:29:13.601Z,6.47
2022-08-26T04:31:41.489Z,6.60
2022-08-26T04:34:08.904Z,6.65
2022-08-26T04:36:38.711Z,6.63
2022-08-26T04:39:06.022Z,6.50
2022-08-26T04:41:33.754Z,7.23
2022-08-26T04:44:02.542Z,6.63
2022-08-26T04:46:30.320Z,7.25
2022-08-26T04:48:57.603Z,7.32
2022-08-26T04:51:28.290Z,7.53
2022-08-26T04:53:59.004Z,7.60
2022-08-26T04:56:27.384Z,7.43
2022-08-26T04:58:55.751Z,7.85
2022-08-26T05:01:23.871Z,7.30
2022-08-26T05:03:51.662Z,6.53
2022-08-26T05:06:20.084Z,7.00
2022-08-26T05:08:47.609Z,7.03
2022-08-26T05:11:15.483Z,7.32
2022-08-26T05:13:43.087Z,7.28
2022-08-26T05:16:11.894Z,7.13
2022-08-26T05:18:39.930Z,7.00
2022-08-26T05:21:07.396Z,7.97
2022-08-26T05:23:35.729Z,7.50
2022-08-26T05:26:07.283Z,7.90
2022-08-26T05:28:35.423Z,7.50
2022-08-26T05:31:12.480Z,6.80
2022-08-26T05:33:41.533Z,8.43
2022-08-26T05:36:11.680Z,8.07
2022-08-26T05:38:40.909Z,7.65
2022-08-26T05:41:18.841Z,7.15
2022-08-26T05:43:46.253Z,6.57
2022-08-26T05:46:13.801Z,6.43
2022-08-26T05:48:44.291Z,6.57
2022-08-26T05:51:12.118Z,6.68
2022-08-26T05:53:40.749Z,6.22
2022-08-26T05:56:12.391Z,6.63
2022-08-26T05:58:40.859Z,6.38
2022-08-26T06:01:11.218Z,6.45
2022-08-26T06:03:42.111Z,6.03
2022-08-26T06:06:16.920Z,6.22
2022-08-26T06:08:48.194Z,5.50
2022-08-26T06:11:18.623Z,6.07
2022-08-26T06:13:46.518Z,5.68
2022-08-26T06:16:15.409Z,5.43
2022-08-26T06:18:45.152Z,6.07
2022-08-26T06:21:12.629Z,5.60
2022-08-26T06:23:58.862Z,6.57
2022-08-26T06:26:26.726Z,5.53
2022-08-26T06:28:55.532Z,6.18
2022-08-26T06:31:23.932Z,6.82
2022-08-26T06:33:51.375Z,5.90
2022-08-26T06:36:20.208Z,6.80
2022-08-26T06:38:48.720Z,7.82
2022-08-26T06:41:16.843Z,7.57
2022-08-26T06:43:44.681Z,7.63
2022-08-26T06:46:13.290Z,8.83
2022-08-26T06:48:40.713Z,8.45
2022-08-26T06:51:13.650Z,9.10
2022-08-26T06:53:41.676Z,7.97
2022-08-26T06:56:09.936Z,7.85
2022-08-26T06:58:38.315Z,8.23
2022-08-26T07:01:22.315Z,8.18
2022-08-26T07:03:50.939Z,7.35
2022-08-26T07:06:19.548Z,6.90
2022-08-26T07:08:47.771Z,7.18
2022-08-26T07:11:15.312Z,7.20
2022-08-26T07:13:43.069Z,5.90
2022-08-26T07:16:12.923Z,6.15
2022-08-26T07:18:44.838Z,6.18
2022-08-26T07:21:16.302Z,6.65
2022-08-26T07:23:46.432Z,7.00
2022-08-26T07:26:27.502Z,6.80
2022-08-26T07:28:56.355Z,6.28
2022-08-26T07:31:25.370Z,6.40
2022-08-26T07:33:52.996Z,6.30
2022-08-26T07:36:20.783Z,6.70
2022-08-26T07:38:48.400Z,7.05
2022-08-26T07:41:16.481Z,6.20
2022-08-26T07:43:43.911Z,6.40
2022-08-26T07:46:16.300Z,5.97
2022-08-26T07:48:46.061Z,6.73
2022-08-26T07:51:15.536Z,5.88
2022-08-26T07:53:43.876Z,5.55
2022-08-26T07:56:17.813Z,5.55
2022-08-26T07:58:48.975Z,5.55
2022-08-26T08:01:20.488Z,5.40
2022-08-26T08:03:51.745Z,5.40
2022-08-26T08:06:27.343Z,5.60
2022-08-26T08:08:56.299Z,5.65
2022-08-26T08:11:25.193Z,5.22
2022-08-26T08:13:56.838Z,5.33
2022-08-26T08:16:32.365Z,5.28
2022-08-26T08:19:02.157Z,5.20
2022-08-26T08:21:34.303Z,5.50
2022-08-26T08:24:01.717Z,4.95
2022-08-26T08:26:29.252Z,5.50
2022-08-26T08:28:57.265Z,5.03
2022-08-26T08:31:52.475Z,5.03
2022-08-26T08:34:14.250Z,5.00
2022-08-26T08:36:41.727Z,5.32
2022-08-26T08:39:09.257Z,4.43
2022-08-26T08:41:59.572Z,5.13
2022-08-26T08:46:57.826Z,4.97
2022-08-26T08:49:26.082Z,4.88
2022-08-26T08:52:02.792Z,5.70
2022-08-26T08:54:32.282Z,5.00
2022-08-26T08:57:17.261Z,4.90
2022-08-26T08:59:53.551Z,5.22
2022-08-26T09:02:27.361Z,5.50
2022-08-26T09:04:59.506Z,5.37
2022-08-26T09:07:34.566Z,4.90
2022-08-26T09:10:37.797Z,4.45
2022-08-26T09:13:08.173Z,5.43
2022-08-26T09:15:54.147Z,5.53
2022-08-26T09:18:38.149Z,5.20
2022-08-26T09:21:08.181Z,5.32
2022-08-26T09:23:37.727Z,5.10
2022-08-26T09:26:16.091Z,5.03
2022-08-26T09:28:49.965Z,5.13
2022-08-26T09:31:25.744Z,5.73
2022-08-26T09:34:07.776Z,5.47
2022-08-26T09:36:41.415Z,5.38
2022-08-26T09:39:24.441Z,6.03
2022-08-26T09:42:20.788Z,4.57
2022-08-26T09:44:53.459Z,4.30
2022-08-26T09:47:30.387Z,4.22
2022-08-26T09:50:20.965Z,4.85
2022-08-26T09:52:48.930Z,6.45
2022-08-26T09:55:22.123Z,5.03
2022-08-26T09:57:54.408Z,4.80
2022-08-26T10:00:28.194Z,4.47
2022-08-26T10:02:58.164Z,4.13
2022-08-26T10:05:40.709Z,4.50
2022-08-26T10:08:25.720Z,4.05
2022-08-26T10:10:53.874Z,3.97
2022-08-26T10:13:26.189Z,4.40
2022-08-26T10:16:17.843Z,4.30
2022-08-26T10:18:48.502Z,4.10
2022-08-26T10:21:22.290Z,4.32
2022-08-26T10:23:51.994Z,4.30
2022-08-26T10:26:28.101Z,4.75
2022-08-26T10:29:01.648Z,4.60
2022-08-26T10:31:48.711Z,4.35
2022-08-26T10:34:19.211Z,4.25
2022-08-26T10:37:14.990Z,3.90
2022-08-26T10:40:03.990Z,4.35
2022-08-26T10:42:39.672Z,3.97
2022-08-26T10:45:11.709Z,3.58
2022-08-26T10:47:50.211Z,4.20
2022-08-26T10:50:18.914Z,4.10
2022-08-26T10:53:02.036Z,4.40
2022-08-26T10:55:57.219Z,4.05
2022-08-26T10:58:35.993Z,4.50
2022-08-26T11:01:43.165Z,4.57
2022-08-26T11:04:37.661Z,3.73
2022-08-26T11:07:36.426Z,4.00
2022-08-26T11:10:19.094Z,3.67
2022-08-26T11:12:54.069Z,4.20
2022-08-26T11:15:24.271Z,4.15
2022-08-26T11:17:52.446Z,4.43
2022-08-26T11:20:22.777Z,4.18
2022-08-26T11:22:51.715Z,4.25
2022-08-26T11:25:30.029Z,3.60
2022-08-26T11:28:02.637Z,4.00
2022-08-26T11:30:41.433Z,4.00
2022-08-26T11:33:09.305Z,4.47
2022-08-26T11:35:37.469Z,4.00
2022-08-26T11:38:22.174Z,3.88
2022-08-26T11:41:03.292Z,3.80
2022-08-26T11:43:31.543Z,3.90
2022-08-26T11:46:10.771Z,3.92
2022-08-26T11:48:40.415Z,3.88
2022-08-26T11:51:13.456Z,3.92
2022-08-26T11:53:43.299Z,4.40
2022-08-26T11:56:24.759Z,4.23
2022-08-26T11:58:56.825Z,3.90
2022-08-26T12:01:31.576Z,3.58
2022-08-26T12:03:59.334Z,4.53
2022-08-26T12:06:48.277Z,4.03
2022-08-26T12:09:26.239Z,7.43
2022-08-26T12:11:57.976Z,3.97
2022-08-26T12:14:27.821Z,4.38
2022-08-26T12:16:55.293Z,4.50
2022-08-26T12:19:32.907Z,3.53
2022-08-26T12:22:20.998Z,4.93
2022-08-26T12:25:08.596Z,4.00
2022-08-26T12:27:41.970Z,4.00
2022-08-26T12:30:12.492Z,3.80
2022-08-26T12:32:52.866Z,3.92
2022-08-26T12:35:26.165Z,3.93
2022-08-26T12:37:54.099Z,4.15
2022-08-26T12:40:30.811Z,3.83
2022-08-26T12:43:02.181Z,3.88
2022-08-26T12:45:37.868Z,4.32
2022-08-26T12:48:10.707Z,3.60
2022-08-26T12:50:46.441Z,3.50
2022-08-26T12:53:25.219Z,4.00
2022-08-26T12:56:00.658Z,3.90
2022-08-26T12:58:38.373Z,3.67
2022-08-26T13:01:09.069Z,3.90
2022-08-26T13:03:45.905Z,4.57
2022-08-26T13:06:22.768Z,3.90
2022-08-26T13:09:25.414Z,4.20
2022-08-26T13:11:53.394Z,3.90
2022-08-26T13:14:24.008Z,4.20
2022-08-26T13:16:52.537Z,3.60
2022-08-26T13:19:22.135Z,3.88
2022-08-26T13:21:50.286Z,4.22
2022-08-26T13:24:22.750Z,3.67
2022-08-26T13:26:50.245Z,4.00
2022-08-26T13:29:26.154Z,4.00
2022-08-26T13:31:53.766Z,3.35
2022-08-26T13:34:22.386Z,4.10
2022-08-26T13:36:51.816Z,3.63
2022-08-26T13:39:19.390Z,3.73
2022-08-26T13:41:50.070Z,4.03
2022-08-26T13:44:20.335Z,3.72
2022-08-26T13:46:50.095Z,3.90
2022-08-26T13:49:17.849Z,4.18
2022-08-26T13:51:45.788Z,3.77
2022-08-26T13:54:13.211Z,4.10
2022-08-26T13:56:44.845Z,4.15
2022-08-26T13:59:12.915Z,4.07
2022-08-26T14:01:40.600Z,4.93
2022-08-26T14:04:08.865Z,3.53
2022-08-26T14:06:36.416Z,3.70
2022-08-26T14:09:04.463Z,3.72
2022-08-26T14:11:50.886Z,3.58
2022-08-26T14:14:19.261Z,4.32
2022-08-26T14:16:59.134Z,3.63
2022-08-26T14:19:29.872Z,3.78
2022-08-26T14:21:57.816Z,3.80
2022-08-26T14:24:25.274Z,4.15
2022-08-26T14:26:52.819Z,4.47
2022-08-26T14:29:23.038Z,3.57
2022-08-26T14:31:55.121Z,3.80
2022-08-26T14:34:23.230Z,3.85
2022-08-26T14:36:50.818Z,3.97
2022-08-26T14:39:18.332Z,4.63
2022-08-26T14:41:53.887Z,4.17
2022-08-26T14:44:24.836Z,4.03
2022-08-26T14:46:53.030Z,3.92
2022-08-26T14:49:21.093Z,4.07
2022-08-26T14:51:48.503Z,4.20
2022-08-26T14:54:25.637Z,4.10
2022-08-26T14:56:54.573Z,4.28
2022-08-26T14:59:25.382Z,4.40
2022-08-26T15:01:53.679Z,4.40
2022-08-26T15:04:21.763Z,4.13
2022-08-26T15:06:52.377Z,3.90
2022-08-26T15:09:20.313Z,3.92
2022-08-26T15:11:48.035Z,4.00
2022-08-26T15:14:20.091Z,4.18
2022-08-26T15:16:51.584Z,4.20
2022-08-26T15:19:19.983Z,3.58
2022-08-26T15:21:47.778Z,4.13
2022-08-26T15:24:17.774Z,3.83
2022-08-26T15:26:45.448Z,3.60
2022-08-26T15:29:13.132Z,3.75
2022-08-26T15:31:40.642Z,3.40
2022-08-26T15:34:12.121Z,4.00
2022-08-26T15:36:45.064Z,3.55
2022-08-26T15:39:12.842Z,4.00
2022-08-26T15:41:40.774Z,4.40
2022-08-26T15:44:08.286Z,4.28
2022-08-26T15:46:36.416Z,4.20
2022-08-26T15:49:05.003Z,3.95
2022-08-26T15:51:35.627Z,3.55
2022-08-26T15:54:14.384Z,3.45
2022-08-26T15:56:42.593Z,3.90
2022-08-26T15:59:11.844Z,4.37
2022-08-26T16:01:39.771Z,4.13
2022-08-26T16:04:07.702Z,3.90
2022-08-26T16:06:36.750Z,3.90
2022-08-26T16:09:05.026Z,4.30
2022-08-26T16:11:32.427Z,4.20
2022-08-26T16:13:59.966Z,4.00
2022-08-26T16:16:27.306Z,4.03
2022-08-26T16:18:55.951Z,4.05
2022-08-26T16:21:25.809Z,4.35
2022-08-26T16:23:53.491Z,3.80
2022-08-26T16:26:24.325Z,3.85
2022-08-26T16:28:52.505Z,3.72
2022-08-26T16:31:21.025Z,3.88
2022-08-26T16:33:48.594Z,4.00
2022-08-26T16:36:16.709Z,4.80
2022-08-26T16:38:50.353Z,3.45
2022-08-26T16:41:18.061Z,4.30
2022-08-26T16:43:45.829Z,4.10
2022-08-26T16:46:14.386Z,4.60
2022-08-26T16:48:45.531Z,4.23
2022-08-26T16:51:14.179Z,4.63
2022-08-26T16:53:42.321Z,4.07
2022-08-26T16:56:14.124Z,5.35
2022-08-26T16:58:41.669Z,4.25
2022-08-26T17:01:09.100Z,3.90
2022-08-26T17:03:36.748Z,4.18
2022-08-26T17:06:04.122Z,3.95
2022-08-26T17:08:31.994Z,4.32
2022-08-26T17:11:00.537Z,4.53
2022-08-26T17:13:35.906Z,4.30
2022-08-26T17:16:05.552Z,5.05
2022-08-26T17:18:33.643Z,4.63
2022-08-26T17:21:06.912Z,4.10
2022-08-26T17:23:34.888Z,4.28
2022-08-26T17:26:02.699Z,3.80
2022-08-26T17:28:30.265Z,5.03
2022-08-26T17:30:58.416Z,4.43
2022-08-26T17:33:25.902Z,3.63
2022-08-26T17:35:53.871Z,4.05
2022-08-26T17:38:21.381Z,4.07
2022-08-26T17:40:49.839Z,4.38
2022-08-26T17:43:18.052Z,4.40
2022-08-26T17:45:46.022Z,5.57
2022-08-26T17:48:14.244Z,4.30
2022-08-26T17:50:42.247Z,4.22
2022-08-26T17:53:12.961Z,5.22
2022-08-26T17:55:47.536Z,4.90
2022-08-26T17:58:16.484Z,5.60
2022-08-26T18:00:45.487Z,4.82
2022-08-26T18:03:12.960Z,5.78
2022-08-26T18:05:41.137Z,5.63
2022-08-26T18:08:09.447Z,5.87
2022-08-26T18:10:36.917Z,5.20
2022-08-26T18:13:04.600Z,5.72
2022-08-26T18:15:32.048Z,6.20
2022-08-26T18:18:00.528Z,6.63
2022-08-26T18:20:28.160Z,7.13
2022-08-26T18:22:55.566Z,6.55
2022-08-26T18:25:23.541Z,5.63
2022-08-26T18:27:51.317Z,6.07
2022-08-26T18:30:21.170Z,6.50
2022-08-26T18:32:49.595Z,6.13
2022-08-26T18:35:17.182Z,5.90
2022-08-26T18:37:45.425Z,6.78
2022-08-26T18:40:14.003Z,6.38
2022-08-26T18:42:41.636Z,6.63
2022-08-26T18:45:09.827Z,7.93
2022-08-26T18:47:44.457Z,7.63
2022-08-26T18:50:14.897Z,6.90
2022-08-26T18:52:43.615Z,7.35
2022-08-26T18:55:10.969Z,7.65
2022-08-26T18:57:38.595Z,7.90
2022-08-26T19:00:07.576Z,8.47
2022-08-26T19:02:35.582Z,9.80
2022-08-26T19:05:06.801Z,8.45
2022-08-26T19:07:39.436Z,8.88
2022-08-26T19:10:12.380Z,9.13
2022-08-26T19:12:40.516Z,9.87
2022-08-26T19:15:08.899Z,9.40
2022-08-26T19:17:36.468Z,10.77
2022-08-26T19:20:04.893Z,11.45
2022-08-26T19:22:32.431Z,12.32
2022-08-26T19:25:00.275Z,10.43
2022-08-26T19:27:27.968Z,10.30
2022-08-26T19:29:57.565Z,9.35
2022-08-26T19:32:25.490Z,9.88
2022-08-26T19:34:53.121Z,10.43
2022-08-26T19:37:20.834Z,10.17
2022-08-26T19:39:48.852Z,8.98
2022-08-26T19:42:16.811Z,8.57
2022-08-26T19:45:02.992Z,8.57
2022-08-26T19:47:31.496Z,8.73
2022-08-26T19:49:59.263Z,9.07
2022-08-26T19:52:30.188Z,9.90
2022-08-26T19:54:58.595Z,10.82
2022-08-26T19:57:26.120Z,8.98
2022-08-26T19:59:53.818Z,8.77
2022-08-26T20:02:21.304Z,8.27
2022-08-26T20:04:48.668Z,8.07
2022-08-26T20:07:18.845Z,7.63
2022-08-26T20:09:46.785Z,7.28
2022-08-26T20:12:15.303Z,7.18
2022-08-26T20:14:43.374Z,8.63
2022-08-26T20:17:11.297Z,13.88
2022-08-26T20:19:58.194Z,14.07
2022-08-26T20:22:25.982Z,12.25
2022-08-26T20:24:53.494Z,10.73
2022-08-26T20:27:38.430Z,12.07
2022-08-26T20:30:07.579Z,10.57
2022-08-26T20:32:35.680Z,11.50
2022-08-26T20:35:04.245Z,10.63
2022-08-26T20:37:31.730Z,9.25
2022-08-26T20:39:59.688Z,9.67
2022-08-26T20:42:27.199Z,9.82
2022-08-26T20:44:55.190Z,8.57
2022-08-26T20:47:23.431Z,9.00
2022-08-26T20:49:52.491Z,8.85
2022-08-26T20:52:20.748Z,8.10
2022-08-26T20:54:48.111Z,7.47
2022-08-26T20:57:15.868Z,8.85
2022-08-26T20:59:43.769Z,7.78
2022-08-26T21:02:12.032Z,8.00
2022-08-26T21:04:39.462Z,7.30
2022-08-26T21:07:07.274Z,7.65
2022-08-26T21:09:34.797Z,7.20
2022-08-26T21:12:03.448Z,7.55
2022-08-26T21:14:31.033Z,7.85
2022-08-26T21:16:58.863Z,7.67
2022-08-26T21:19:26.884Z,7.88
2022-08-26T21:21:54.812Z,7.57
2022-08-26T21:24:22.246Z,7.15
2022-08-26T21:26:50.065Z,6.72
2022-08-26T21:29:17.669Z,7.07
2022-08-26T21:31:46.802Z,6.95
2022-08-26T21:34:16.574Z,7.00
2022-08-26T21:36:47.334Z,6.78
2022-08-26T21:39:15.046Z,6.10
2022-08-26T21:41:42.897Z,6.43
2022-08-26T21:44:11.304Z,6.22
2022-08-26T21:46:38.739Z,6.40
2022-08-26T21:49:11.439Z,6.25
2022-08-26T21:51:41.259Z,6.47
2022-08-26T21:54:11.397Z,7.17
2022-08-26T21:56:44.349Z,10.45
2022-08-26T21:59:12.102Z,10.40
2022-08-26T22:01:39.632Z,6.85
2022-08-26T22:04:10.273Z,6.57
2022-08-26T22:06:46.486Z,8.83
2022-08-26T22:09:14.931Z,8.27
2022-08-26T22:11:42.607Z,8.07
2022-08-26T22:14:10.082Z,7.70
2022-08-26T22:16:37.538Z,6.15
2022-08-26T22:19:05.693Z,6.07
2022-08-26T22:21:34.257Z,6.50
2022-08-26T22:24:01.873Z,6.63
2022-08-26T22:26:30.932Z,5.95
2022-08-26T22:28:59.519Z,5.63
2022-08-26T22:31:37.653Z,6.03
2022-08-26T22:34:11.517Z,5.70
2022-08-26T22:36:43.820Z,5.38
2022-08-26T22:39:16.187Z,5.35
2022-08-26T22:41:43.837Z,5.82
2022-08-26T22:44:11.945Z,5.70
2022-08-26T22:46:40.026Z,5.43
2022-08-26T22:49:08.831Z,5.40
2022-08-26T22:51:36.960Z,5.68
2022-08-26T22:54:05.106Z,6.55
2022-08-26T22:56:32.619Z,5.57
2022-08-26T22:59:00.101Z,5.68
2022-08-26T23:01:27.560Z,5.45
2022-08-26T23:03:55.011Z,5.68
2022-08-26T23:06:22.968Z,5.40
2022-08-26T23:08:50.591Z,5.20
2022-08-26T23:11:18.035Z,5.40
2022-08-26T23:13:45.508Z,5.43
2022-08-26T23:16:13.213Z,5.65
2022-08-26T23:18:41.154Z,5.45
2022-08-26T23:21:08.989Z,5.57
2022-08-26T23:23:37.211Z,5.20
2022-08-26T23:26:06.337Z,5.90
2022-08-26T23:28:35.461Z,5.60
2022-08-26T23:31:02.932Z,4.57
2022-08-26T23:33:50.482Z,6.23
2022-08-26T23:36:22.720Z,5.60
2022-08-26T23:38:53.068Z,5.20
2022-08-26T23:41:24.571Z,5.57
2022-08-26T23:43:52.171Z,6.05
2022-08-26T23:46:19.684Z,5.80
2022-08-26T23:48:47.060Z,5.32
2022-08-26T23:51:32.993Z,5.65
2022-08-26T23:54:00.611Z,5.55
2022-08-26T23:56:29.307Z,5.88
2022-08-26T23:58:56.773Z,4.67
